Time;durP1;ratioP1;P1;durP2;ratioP2;P2;SDS_P1;SDS_P2;PMS_P1;PMS_P2;Temp;Humidity;BMP_temperature;BMP_pressure;BME280_temperature;BME280_humidity;BME280_pressure;Samples;Min_cycle;Max_cycle;Signal;HPM_P1;HPM_P2
2022/07/13 00:00:55;;;;;;;3.27;1.70;;;24.90;55.00;;;;;;2041545;29;20500;-79
2022/07/13 00:01:55;;;;;;;3.90;1.33;;;24.90;54.90;;;;;;2041975;29;20098;-81
2022/07/13 00:02:56;;;;;;;4.93;1.80;;;24.90;54.80;;;;;;2058073;28;20074;-79
2022/07/13 00:03:57;;;;;;;4.30;1.33;;;24.90;54.90;;;;;;2049954;28;20062;-79
2022/07/13 00:04:58;;;;;;;3.33;1.50;;;24.90;54.90;;;;;;2052543;28;20019;-81
2022/07/13 00:05:59;;;;;;;5.33;1.60;;;25.00;55.00;;;;;;2049801;29;20023;-79
2022/07/13 00:07:00;;;;;;;5.53;1.40;;;24.90;55.60;;;;;;2034040;29;20439;-78
2022/07/13 00:08:01;;;;;;;3.63;1.50;;;24.90;55.60;;;;;;2043517;29;20047;-79
2022/07/13 00:09:02;;;;;;;3.73;1.63;;;24.90;55.10;;;;;;2056658;28;20034;-78
2022/07/13 00:10:04;;;;;;;3.08;1.27;;;24.90;55.00;;;;;;2057704;28;20121;-79
2022/07/13 00:11:05;;;;;;;3.53;1.55;;;24.90;55.00;;;;;;2046613;29;20437;-81
2022/07/13 00:12:06;;;;;;;3.23;1.50;;;24.90;55.00;;;;;;2045818;28;20027;-81
2022/07/13 00:13:06;;;;;;;7.90;1.80;;;24.90;54.90;;;;;;2051372;28;20071;-80
2022/07/13 00:14:07;;;;;;;4.40;1.40;;;24.90;54.80;;;;;;2052879;28;20482;-81
2022/07/13 00:15:09;;;;;;;3.63;1.77;;;24.90;55.00;;;;;;2051495;28;20094;-80
2022/07/13 00:16:09;;;;;;;4.13;1.33;;;24.90;55.00;;;;;;2049638;28;20064;-79
2022/07/13 00:17:10;;;;;;;3.40;1.47;;;24.90;55.00;;;;;;2051440;29;20031;-81
2022/07/13 00:18:11;;;;;;;4.47;1.70;;;24.90;55.00;;;;;;2058869;28;20106;-80
2022/07/13 00:19:12;;;;;;;2.60;1.50;;;24.90;54.90;;;;;;2059377;28;20034;-80
2022/07/13 00:20:13;;;;;;;3.40;1.63;;;24.80;55.10;;;;;;2044661;28;20122;-81
2022/07/13 00:21:14;;;;;;;2.43;1.30;;;24.80;55.00;;;;;;2044584;29;20027;-79
2022/07/13 00:22:15;;;;;;;2.63;1.50;;;24.80;54.80;;;;;;2051413;28;20086;-81
2022/07/13 00:23:15;;;;;;;2.67;1.60;;;24.80;54.90;;;;;;2051291;28;20043;-79
2022/07/13 00:24:16;;;;;;;4.17;1.30;;;24.80;55.00;;;;;;2058620;28;20483;-79
2022/07/13 00:25:17;;;;;;;4.55;1.73;;;24.80;54.90;;;;;;2059326;28;20109;-78
2022/07/13 00:26:18;;;;;;;5.20;1.60;;;24.80;54.90;;;;;;2051197;28;20061;-80
2022/07/13 00:27:19;;;;;;;3.20;1.73;;;24.80;55.10;;;;;;2048153;29;20098;-81
2022/07/13 00:28:20;;;;;;;3.50;1.60;;;24.80;55.00;;;;;;2058289;28;20401;-80
2022/07/13 00:29:20;;;;;;;3.63;2.07;;;24.80;54.90;;;;;;2051339;28;20548;-79
2022/07/13 00:30:21;;;;;;;4.73;1.90;;;24.80;54.90;;;;;;2043167;29;20465;-80
2022/07/13 00:31:22;;;;;;;3.30;1.70;;;24.80;54.90;;;;;;2050802;28;20031;-81
2022/07/13 00:32:23;;;;;;;5.43;1.57;;;24.80;54.90;;;;;;2059322;28;20023;-81
2022/07/13 00:33:24;;;;;;;2.30;1.70;;;24.80;55.00;;;;;;2059208;28;20028;-80
2022/07/13 00:34:24;;;;;;;4.80;1.73;;;24.80;55.00;;;;;;2067472;28;20030;-79
2022/07/13 00:35:25;;;;;;;3.77;2.07;;;24.80;55.00;;;;;;2058916;28;20469;-80
2022/07/13 00:36:26;;;;;;;3.13;1.63;;;24.80;54.90;;;;;;2043164;29;20028;-79
2022/07/13 00:37:27;;;;;;;3.07;1.50;;;24.80;54.90;;;;;;2043462;29;20458;-79
2022/07/13 00:38:28;;;;;;;3.00;1.70;;;24.80;55.00;;;;;;2050591;29;20054;-79
2022/07/13 00:39:29;;;;;;;2.35;1.60;;;24.80;55.00;;;;;;2048688;28;20350;-79
2022/07/13 00:40:30;;;;;;;2.80;1.70;;;24.80;55.00;;;;;;2050711;28;20065;-79
2022/07/13 00:41:30;;;;;;;4.37;1.77;;;24.80;54.90;;;;;;2059230;28;20066;-81
2022/07/13 00:42:31;;;;;;;2.23;1.50;;;24.70;54.80;;;;;;2059331;28;20806;-78
2022/07/13 00:43:32;;;;;;;2.13;1.30;;;24.70;54.90;;;;;;2051030;28;20070;-81
2022/07/13 00:44:33;;;;;;;2.50;1.60;;;24.70;54.90;;;;;;2042428;29;20078;-78
2022/07/13 00:45:34;;;;;;;2.43;1.60;;;24.70;55.00;;;;;;2043495;29;20404;-81
2022/07/13 00:46:36;;;;;;;4.05;1.80;;;24.70;54.90;;;;;;2051467;28;20161;-80
2022/07/13 00:47:37;;;;;;;;;;;24.70;54.70;;;;;;2059554;28;20035;-79
2022/07/13 00:48:38;;;;;;;9.10;1.88;;;24.60;54.70;;;;;;2059218;28;19910;-81
2022/07/13 00:49:40;;;;;;;3.35;1.67;;;24.70;54.70;;;;;;2058948;28;20465;-78
2022/07/13 00:50:41;;;;;;;4.30;1.80;;;24.70;54.80;;;;;;2059447;28;20101;-78
2022/07/13 00:51:42;;;;;;;2.67;1.65;;;24.70;54.70;;;;;;2050481;28;20183;-80
2022/07/13 00:52:46;;;;;;;3.28;1.77;;;24.60;54.80;;;;;;2051010;29;20030;-80
2022/07/13 00:53:46;;;;;;;3.17;1.80;;;24.60;54.80;;;;;;2051652;28;20036;-79
2022/07/13 00:54:48;;;;;;;2.80;1.67;;;24.60;54.70;;;;;;2059235;28;20027;-80
2022/07/13 00:55:49;;;;;;;4.10;1.88;;;24.70;54.80;;;;;;2051005;29;20039;-79
2022/07/13 00:56:50;;;;;;;4.45;1.92;;;24.60;55.20;;;;;;2051301;28;20038;-79
2022/07/13 00:57:51;;;;;;;5.10;2.05;;;24.60;54.80;;;;;;2042450;29;20110;-78
2022/07/13 00:58:52;;;;;;;10.85;2.55;;;24.60;54.90;;;;;;2050167;28;20019;-79
2022/07/13 00:59:53;;;;;;;2.53;1.87;;;24.60;54.80;;;;;;2050790;28;20449;-81
2022/07/13 01:00:55;;;;;;;3.58;1.80;;;24.60;54.80;;;;;;2050728;28;20285;-81
2022/07/13 01:01:55;;;;;;;3.83;2.00;;;24.60;55.00;;;;;;2050833;28;20544;-79
2022/07/13 01:02:56;;;;;;;6.23;1.87;;;24.60;54.90;;;;;;2047229;29;20071;-81
2022/07/13 01:03:57;;;;;;;4.50;2.00;;;24.60;54.80;;;;;;2048592;29;20031;-81
2022/07/13 01:05:00;;;;;;;4.83;2.07;;;24.60;54.90;;;;;;2036129;29;20039;-81
2022/07/13 01:06:02;;;;;;;6.28;2.35;;;24.60;54.80;;;;;;2051447;28;20023;-79
2022/07/13 01:07:04;;;;;;;3.90;2.05;;;24.60;54.80;;;;;;2051252;28;20027;-78
2022/07/13 01:08:05;;;;;;;3.78;2.10;;;24.60;54.70;;;;;;2050946;29;20563;-79
2022/07/13 01:09:06;;;;;;;6.00;2.10;;;24.60;54.90;;;;;;2051238;28;20137;-79
2022/07/13 01:10:09;;;;;;;5.07;2.00;;;24.60;54.90;;;;;;2059169;28;20027;-81
2022/07/13 01:11:10;;;;;;;5.40;1.75;;;24.60;55.00;;;;;;2050278;29;20031;-79
2022/07/13 01:12:11;;;;;;;4.63;2.10;;;24.60;54.90;;;;;;2051207;28;20040;-78
2022/07/13 01:13:13;;;;;;;7.00;2.00;;;24.60;54.90;;;;;;2061932;28;20023;-80
2022/07/13 01:14:15;;;;;;;5.93;1.92;;;24.50;54.90;;;;;;2051039;29;20301;-79
2022/07/13 01:15:16;;;;;;;4.43;2.08;;;24.50;55.00;;;;;;2043279;28;20042;-79
2022/07/13 01:16:17;;;;;;;5.55;1.58;;;24.50;54.90;;;;;;2058973;28;20030;-81
2022/07/13 01:17:18;;;;;;;5.03;1.70;;;24.60;54.90;;;;;;2050738;28;20350;-78
2022/07/13 01:18:19;;;;;;;3.63;1.63;;;24.50;54.90;;;;;;2050392;28;20039;-81
2022/07/13 01:19:21;;;;;;;5.10;1.60;;;24.50;54.90;;;;;;2059121;28;20069;-80
2022/07/13 01:20:23;;;;;;;3.25;1.90;;;24.50;55.00;;;;;;2059172;28;20094;-79
2022/07/13 01:21:24;;;;;;;3.65;1.58;;;24.50;54.80;;;;;;2058937;28;20117;-81
2022/07/13 01:22:31;;;;;;;2.40;1.60;;;24.50;54.90;;;;;;2054119;28;20098;-78
2022/07/13 01:23:33;;;;;;;8.15;1.65;;;24.50;54.90;;;;;;2058070;28;20037;-81
2022/07/13 01:24:34;;;;;;;7.15;1.98;;;24.50;55.00;;;;;;2050368;29;20059;-78
2022/07/13 01:25:36;;;;;;;6.18;1.90;;;24.50;55.00;;;;;;2054049;28;20452;-79
2022/07/13 01:26:38;;;;;;;6.18;2.20;;;24.50;55.00;;;;;;2058618;28;20035;-81
2022/07/13 01:27:41;;;;;;;4.95;1.80;;;24.50;55.00;;;;;;2050931;29;20410;-80
2022/07/13 01:28:42;;;;;;;3.25;1.60;;;24.50;55.00;;;;;;2044867;28;20027;-79
2022/07/13 01:29:43;;;;;;;5.37;1.53;;;24.50;55.00;;;;;;2042798;29;20039;-78
2022/07/13 01:30:45;;;;;;;3.53;1.40;;;24.50;55.10;;;;;;2053481;28;20026;-78
2022/07/13 01:31:45;;;;;;;6.43;1.60;;;24.40;55.10;;;;;;2050254;29;20465;-79
2022/07/13 01:32:49;;;;;;;4.63;1.87;;;24.50;55.10;;;;;;2051008;28;20144;-80
2022/07/13 01:33:50;;;;;;;3.95;1.60;;;24.40;55.10;;;;;;2050895;29;20027;-78
2022/07/13 01:34:51;;;;;;;3.23;1.30;;;24.40;55.10;;;;;;2050815;28;20028;-79
2022/07/13 01:35:52;;;;;;;2.47;1.58;;;24.50;55.10;;;;;;2058720;28;20081;-81
2022/07/13 01:36:54;;;;;;;1.95;1.40;;;24.40;55.10;;;;;;2051164;28;20497;-80
2022/07/13 01:37:56;;;;;;;5.47;1.70;;;24.40;55.10;;;;;;2051172;28;20027;-81
2022/07/13 01:38:58;;;;;;;;;;;24.40;55.20;;;;;;2043466;29;20060;-79
2022/07/13 01:39:58;;;;;;;4.28;1.30;;;24.40;55.20;;;;;;2050995;28;20256;-79
2022/07/13 01:41:01;;;;;;;3.72;1.25;;;24.40;55.10;;;;;;2050495;28;20035;-79
2022/07/13 01:42:03;;;;;;;2.75;1.40;;;24.40;55.80;;;;;;2051654;28;20035;-79
2022/07/13 01:43:05;;;;;;;2.67;1.50;;;24.40;55.20;;;;;;2058729;28;20022;-80
2022/07/13 01:44:05;;;;;;;5.47;1.63;;;24.40;55.30;;;;;;2050930;28;20269;-80
2022/07/13 01:45:08;;;;;;;4.50;1.30;;;24.30;55.20;;;;;;2049999;29;20023;-80
2022/07/13 01:46:10;;;;;;;4.50;1.25;;;24.40;55.30;;;;;;2051134;28;20062;-80
2022/07/13 01:47:11;;;;;;;3.10;1.58;;;24.30;55.30;;;;;;2059067;28;20034;-78
2022/07/13 01:48:12;;;;;;;2.88;1.60;;;24.30;55.30;;;;;;2058475;28;20102;-78
2022/07/13 01:49:13;;;;;;;2.07;1.20;;;24.30;55.40;;;;;;2051189;28;20442;-79
2022/07/13 01:50:15;;;;;;;2.73;1.27;;;24.30;55.40;;;;;;2058353;28;20073;-80
2022/07/13 01:51:16;;;;;;;5.03;1.60;;;24.30;55.50;;;;;;2057909;28;20034;-79
2022/07/13 01:52:17;;;;;;;1.93;1.40;;;24.30;56.10;;;;;;2050848;29;20039;-81
2022/07/13 01:53:18;;;;;;;1.80;1.20;;;24.30;55.50;;;;;;2054114;28;20031;-81
2022/07/13 01:54:18;;;;;;;3.27;1.50;;;24.30;55.50;;;;;;2043006;29;20031;-79
2022/07/13 01:55:20;;;;;;;2.07;1.40;;;24.30;55.50;;;;;;2050797;28;20035;-79
2022/07/13 01:56:21;;;;;;;2.92;1.30;;;24.30;55.50;;;;;;2058620;28;20037;-81
2022/07/13 01:57:22;;;;;;;1.98;1.05;;;24.30;55.60;;;;;;2058650;28;20038;-81
2022/07/13 01:58:23;;;;;;;3.43;1.20;;;24.30;55.70;;;;;;2058098;28;20449;-81
2022/07/13 01:59:24;;;;;;;2.13;1.17;;;24.30;55.60;;;;;;2066826;28;20096;-80
2022/07/13 02:00:25;;;;;;;4.53;1.20;;;24.30;55.60;;;;;;2056644;28;20035;-78
2022/07/13 02:01:26;;;;;;;4.05;1.40;;;24.30;55.70;;;;;;2050584;28;20053;-81
2022/07/13 02:02:27;;;;;;;3.10;1.40;;;24.30;55.70;;;;;;2050844;29;20027;-82
2022/07/13 02:03:29;;;;;;;2.40;1.15;;;24.20;55.80;;;;;;2050672;28;20269;-80
2022/07/13 02:04:30;;;;;;;1.98;1.15;;;24.30;55.90;;;;;;2057992;28;20030;-79
2022/07/13 02:05:31;;;;;;;3.90;1.87;;;24.30;56.50;;;;;;2058427;28;20109;-79
2022/07/13 02:06:32;;;;;;;2.65;1.40;;;24.20;55.90;;;;;;2042738;28;20262;-82
2022/07/13 02:07:33;;;;;;;3.63;1.33;;;24.20;55.90;;;;;;2050664;29;20031;-80
2022/07/13 02:08:35;;;;;;;2.72;1.42;;;24.20;56.00;;;;;;2045928;29;20118;-79
2022/07/13 02:09:36;;;;;;;3.50;1.23;;;24.20;56.00;;;;;;2042787;28;20023;-80
2022/07/13 02:10:37;;;;;;;3.20;1.10;;;24.20;56.00;;;;;;2042710;29;20027;-80
2022/07/13 02:11:39;;;;;;;2.05;1.30;;;24.20;56.10;;;;;;2042411;28;20469;-81
2022/07/13 02:12:41;;;;;;;2.80;1.20;;;24.20;56.10;;;;;;2042819;29;20094;-79
2022/07/13 02:13:44;;;;;;;3.05;1.33;;;24.20;56.20;;;;;;2045880;29;20336;-79
2022/07/13 02:14:46;;;;;;;1.55;1.17;;;24.20;56.20;;;;;;2050955;28;20063;-82
2022/07/13 02:15:46;;;;;;;3.88;0.95;;;24.20;56.30;;;;;;2050479;28;20030;-80
2022/07/13 02:16:48;;;;;;;2.55;1.15;;;24.20;56.40;;;;;;2058613;28;20026;-78
2022/07/13 02:17:48;;;;;;;1.98;1.20;;;24.20;56.40;;;;;;2049907;29;20034;-81
2022/07/13 02:18:49;;;;;;;2.23;1.20;;;24.20;56.50;;;;;;2050308;29;20031;-78
2022/07/13 02:19:51;;;;;;;2.28;1.02;;;24.20;56.50;;;;;;2058606;28;20038;-79
2022/07/13 02:20:51;;;;;;;4.15;1.20;;;24.20;56.60;;;;;;2058279;28;20035;-80
2022/07/13 02:21:53;;;;;;;3.85;1.27;;;24.20;56.60;;;;;;2043514;28;20028;-79
2022/07/13 02:22:54;;;;;;;3.20;1.20;;;24.20;56.70;;;;;;2050635;29;20027;-81
2022/07/13 02:23:54;;;;;;;4.03;1.63;;;24.20;56.70;;;;;;2046050;28;20023;-81
2022/07/13 02:24:59;;;;;;;4.03;1.40;;;24.20;56.80;;;;;;2041967;29;20032;-79
2022/07/13 02:26:00;;;;;;;4.07;1.30;;;24.20;56.70;;;;;;2041512;29;20027;-78
2022/07/13 02:27:01;;;;;;;3.87;1.60;;;24.10;56.80;;;;;;2050435;28;20481;-79
2022/07/13 02:28:02;;;;;;;4.13;1.27;;;24.20;56.90;;;;;;2058369;28;20331;-80
2022/07/13 02:29:04;;;;;;;4.00;1.20;;;24.20;56.90;;;;;;2058178;28;20429;-78
2022/07/13 02:30:05;;;;;;;2.53;1.17;;;24.10;57.00;;;;;;2042905;29;20042;-80
2022/07/13 02:31:08;;;;;;;13.57;1.40;;;24.10;57.00;;;;;;2049762;28;20034;-79
2022/07/13 02:32:09;;;;;;;2.58;1.20;;;24.10;57.10;;;;;;2050549;29;20039;-79
2022/07/13 02:33:11;;;;;;;3.17;1.50;;;24.10;57.10;;;;;;2050341;28;20035;-81
2022/07/13 02:34:13;;;;;;;2.08;1.40;;;24.10;57.20;;;;;;2057882;28;20441;-78
2022/07/13 02:35:15;;;;;;;2.08;1.27;;;24.10;57.30;;;;;;2052502;28;20023;-81
2022/07/13 02:36:15;;;;;;;2.00;1.30;;;24.10;57.30;;;;;;2052601;28;20069;-78
2022/07/13 02:37:16;;;;;;;7.63;1.50;;;24.10;57.40;;;;;;2050499;28;20063;-80
2022/07/13 02:38:18;;;;;;;4.68;1.30;;;24.10;57.40;;;;;;2049677;29;20034;-78
2022/07/13 02:39:19;;;;;;;4.40;1.20;;;24.10;58.00;;;;;;2046421;29;20377;-81
2022/07/13 02:40:19;;;;;;;2.47;1.30;;;24.00;57.30;;;;;;2058156;28;20062;-80
2022/07/13 02:41:21;;;;;;;4.20;1.30;;;24.10;57.40;;;;;;2053160;28;20023;-81
2022/07/13 02:42:25;;;;;;;2.90;1.33;;;24.10;57.40;;;;;;2050519;28;20350;-79
2022/07/13 02:43:26;;;;;;;4.28;1.40;;;24.00;57.40;;;;;;2048262;28;20023;-81
2022/07/13 02:44:26;;;;;;;2.07;1.20;;;24.00;57.50;;;;;;2057690;28;20049;-79
2022/07/13 02:45:27;;;;;;;4.03;1.40;;;24.00;57.60;;;;;;2066577;28;20077;-80
2022/07/13 02:46:30;;;;;;;2.50;1.23;;;24.00;57.70;;;;;;2065990;28;20026;-81
2022/07/13 02:47:31;;;;;;;3.50;1.30;;;24.00;57.80;;;;;;2042499;29;20037;-79
2022/07/13 02:48:34;;;;;;;1.90;1.30;;;24.00;57.90;;;;;;2042603;28;20020;-80
2022/07/13 02:49:35;;;;;;;2.65;1.33;;;24.00;58.50;;;;;;2043306;28;20031;-81
2022/07/13 02:50:36;;;;;;;2.07;1.30;;;24.00;58.00;;;;;;2051519;28;20106;-81
2022/07/13 02:51:37;;;;;;;4.37;1.60;;;24.00;58.00;;;;;;2041771;29;20155;-81
2022/07/13 02:52:39;;;;;;;1.83;1.20;;;24.00;58.10;;;;;;2050428;29;20027;-80
2022/07/13 02:53:42;;;;;;;4.05;1.50;;;24.00;58.20;;;;;;2049102;28;20540;-81
2022/07/13 02:54:43;;;;;;;3.08;1.50;;;24.00;58.30;;;;;;2050297;28;20023;-79
2022/07/13 02:55:44;;;;;;;2.20;1.40;;;24.00;58.30;;;;;;2041745;29;20098;-81
2022/07/13 02:56:45;;;;;;;3.45;1.50;;;24.00;59.00;;;;;;2046094;29;20023;-81
2022/07/13 02:57:46;;;;;;;5.77;1.77;;;24.00;58.40;;;;;;2057628;28;20041;-78
2022/07/13 02:58:47;;;;;;;4.72;1.40;;;24.00;58.40;;;;;;2058338;28;20110;-81
2022/07/13 02:59:47;;;;;;;2.60;1.40;;;23.90;58.50;;;;;;2050242;29;20078;-79
2022/07/13 03:00:48;;;;;;;3.17;1.60;;;24.00;58.50;;;;;;2050158;29;20030;-79
2022/07/13 03:01:49;;;;;;;3.37;1.37;;;23.90;58.50;;;;;;2050061;29;20035;-79
2022/07/13 03:02:50;;;;;;;5.23;1.40;;;23.90;58.60;;;;;;2058419;28;20336;-80
2022/07/13 03:03:50;;;;;;;2.43;1.43;;;24.00;58.60;;;;;;2058110;28;20019;-80
2022/07/13 03:04:51;;;;;;;5.45;1.40;;;23.90;58.60;;;;;;2049385;28;20114;-80
2022/07/13 03:05:52;;;;;;;4.90;1.60;;;24.00;58.60;;;;;;2048643;29;20031;-79
2022/07/13 03:06:53;;;;;;;2.43;1.23;;;23.90;58.60;;;;;;2058340;28;20046;-80
2022/07/13 03:07:54;;;;;;;3.67;1.33;;;24.00;58.70;;;;;;2050124;29;20051;-80
2022/07/13 03:08:55;;;;;;;3.47;1.45;;;23.90;58.70;;;;;;2056107;28;20054;-79
2022/07/13 03:09:57;;;;;;;4.37;1.63;;;23.90;58.70;;;;;;2057951;28;20042;-81
2022/07/13 03:10:57;;;;;;;4.07;1.65;;;23.90;58.70;;;;;;2057172;28;20046;-81
2022/07/13 03:11:58;;;;;;;3.77;1.47;;;23.90;58.80;;;;;;2045466;29;20039;-78
2022/07/13 03:12:59;;;;;;;4.30;1.60;;;23.90;58.80;;;;;;2042408;29;20062;-82
2022/07/13 03:14:02;;;;;;;2.15;1.50;;;23.90;58.90;;;;;;2061926;28;20396;-79
2022/07/13 03:15:04;;;;;;;3.45;1.50;;;23.90;59.10;;;;;;2050569;28;20035;-81
2022/07/13 03:16:05;;;;;;;3.55;2.00;;;23.90;59.20;;;;;;2052574;28;20059;-81
2022/07/13 03:17:07;;;;;;;3.10;1.70;;;23.90;59.20;;;;;;2053484;28;20056;-79
2022/07/13 03:18:08;;;;;;;2.33;1.53;;;23.90;59.30;;;;;;2041603;29;20028;-78
2022/07/13 03:19:09;;;;;;;4.75;1.60;;;23.80;59.40;;;;;;2056315;28;20093;-78
2022/07/13 03:20:11;;;;;;;3.05;1.60;;;23.90;59.50;;;;;;2050912;28;20469;-78
2022/07/13 03:21:12;;;;;;;3.63;1.83;;;23.90;59.60;;;;;;2043644;28;20031;-80
2022/07/13 03:22:13;;;;;;;5.45;1.77;;;23.80;59.70;;;;;;2045680;28;20521;-79
2022/07/13 03:23:14;;;;;;;2.57;1.73;;;23.80;59.70;;;;;;2049893;28;20086;-78
2022/07/13 03:24:15;;;;;;;4.97;1.80;;;23.90;59.80;;;;;;2049573;28;20019;-79
2022/07/13 03:25:16;;;;;;;4.47;1.80;;;23.80;59.90;;;;;;2050128;28;20442;-81
2022/07/13 03:26:17;;;;;;;4.07;1.63;;;23.80;60.00;;;;;;2050161;28;20090;-81
2022/07/13 03:27:18;;;;;;;4.57;1.90;;;23.80;60.00;;;;;;2042470;29;20028;-80
2022/07/13 03:28:19;;;;;;;2.60;1.57;;;23.80;60.20;;;;;;2050166;29;20288;-79
2022/07/13 03:29:20;;;;;;;4.70;1.93;;;23.80;60.30;;;;;;2056006;28;20117;-81
2022/07/13 03:30:21;;;;;;;2.10;1.40;;;23.80;60.40;;;;;;2042593;28;20091;-79
2022/07/13 03:31:22;;;;;;;6.65;2.00;;;23.80;60.30;;;;;;2056872;28;20081;-80
2022/07/13 03:32:23;;;;;;;3.13;1.63;;;23.80;60.50;;;;;;2050001;28;20035;-79
2022/07/13 03:33:24;;;;;;;3.25;1.90;;;23.80;60.60;;;;;;2042426;28;20567;-82
2022/07/13 03:34:25;;;;;;;4.28;2.00;;;23.70;60.50;;;;;;2052168;28;20036;-78
2022/07/13 03:35:27;;;;;;;4.32;1.92;;;23.70;60.60;;;;;;2052003;28;20023;-78
2022/07/13 03:36:27;;;;;;;7.80;1.90;;;23.80;60.80;;;;;;2058021;28;20058;-79
2022/07/13 03:37:29;;;;;;;2.55;1.70;;;23.80;60.80;;;;;;2048610;28;20030;-79
2022/07/13 03:38:31;;;;;;;2.37;1.73;;;23.80;60.80;;;;;;2057303;28;20122;-79
2022/07/13 03:39:31;;;;;;;6.15;1.88;;;23.70;60.80;;;;;;2057640;28;20042;-79
2022/07/13 03:40:33;;;;;;;;;;;23.70;60.90;;;;;;2050433;29;20403;-78
2022/07/13 03:41:35;;;;;;;2.92;1.75;;;23.70;60.90;;;;;;2042694;28;20085;-79
2022/07/13 03:42:38;;;;;;;3.72;1.70;;;23.70;60.90;;;;;;2049918;29;20031;-78
2022/07/13 03:43:39;;;;;;;5.15;2.00;;;23.70;61.00;;;;;;2058498;28;20035;-80
2022/07/13 03:44:41;;;;;;;;;;;23.70;61.00;;;;;;2057378;28;20470;-78
2022/07/13 03:45:42;;;;;;;8.43;1.98;;;23.70;61.10;;;;;;2050083;29;19907;-79
2022/07/13 03:46:44;;;;;;;6.45;1.98;;;23.70;61.30;;;;;;2047278;28;20031;-79
2022/07/13 03:47:44;;;;;;;9.87;2.03;;;23.70;61.20;;;;;;2049110;28;20035;-79
2022/07/13 03:48:45;;;;;;;7.03;2.30;;;23.70;61.30;;;;;;2049885;29;20405;-80
2022/07/13 03:49:46;;;;;;;3.77;2.00;;;23.70;61.40;;;;;;2048196;29;20055;-79
2022/07/13 03:50:48;;;;;;;3.28;1.90;;;23.70;61.30;;;;;;2049916;28;20106;-79
2022/07/13 03:51:49;;;;;;;;;;;23.70;61.40;;;;;;2057384;28;20117;-79
2022/07/13 03:52:50;;;;;;;4.75;1.80;;;23.70;61.40;;;;;;2050241;28;19910;-79
2022/07/13 03:53:52;;;;;;;3.17;1.70;;;23.70;61.40;;;;;;2057937;28;20023;-80
2022/07/13 03:54:52;;;;;;;3.77;1.77;;;23.70;61.50;;;;;;2047100;29;20024;-78
2022/07/13 03:55:55;;;;;;;5.57;1.90;;;23.70;61.30;;;;;;2041977;28;20035;-81
2022/07/13 03:56:56;;;;;;;4.10;1.70;;;23.70;61.50;;;;;;2042355;29;20043;-80
2022/07/13 03:57:57;;;;;;;3.85;1.88;;;23.70;61.50;;;;;;2055708;28;20440;-81
2022/07/13 03:58:58;;;;;;;2.40;1.70;;;23.70;61.30;;;;;;2048515;29;20055;-79
2022/07/13 04:00:00;;;;;;;3.63;1.90;;;23.70;61.20;;;;;;2041341;29;20036;-81
2022/07/13 04:01:01;;;;;;;2.97;1.90;;;23.60;61.00;;;;;;2041792;28;20067;-79
2022/07/13 04:02:02;;;;;;;6.32;1.88;;;23.70;61.00;;;;;;2049978;28;20095;-79
2022/07/13 04:03:04;;;;;;;4.30;1.70;;;23.70;60.70;;;;;;2050022;28;20028;-80
2022/07/13 04:04:05;;;;;;;4.05;1.83;;;23.60;60.70;;;;;;2042047;29;20032;-79
2022/07/13 04:05:07;;;;;;;4.63;1.83;;;23.60;60.90;;;;;;2033435;29;20036;-78
2022/07/13 04:06:09;;;;;;;4.45;1.73;;;23.60;60.80;;;;;;2049865;28;20058;-78
2022/07/13 04:07:10;;;;;;;5.43;1.90;;;23.60;60.80;;;;;;2050048;28;20070;-81
2022/07/13 04:08:12;;;;;;;4.70;1.70;;;23.60;60.70;;;;;;2048791;28;20058;-78
2022/07/13 04:09:13;;;;;;;5.27;1.90;;;23.60;60.80;;;;;;2048534;28;20042;-81
2022/07/13 04:10:14;;;;;;;3.47;1.87;;;23.60;60.80;;;;;;2050011;29;20042;-81
2022/07/13 04:11:14;;;;;;;2.90;1.60;;;23.60;60.70;;;;;;2049009;29;20849;-78
2022/07/13 04:12:23;;;;;;;6.00;2.15;;;23.60;60.70;;;;;;2049668;29;20031;-81
2022/07/13 04:13:24;;;;;;;3.35;1.80;;;23.60;60.70;;;;;;2051423;28;20393;-78
2022/07/13 04:14:25;;;;;;;5.45;2.22;;;23.60;60.70;;;;;;2049924;29;20043;-78
2022/07/13 04:15:26;;;;;;;4.23;2.47;;;23.60;60.70;;;;;;2049975;28;20031;-81
2022/07/13 04:16:27;;;;;;;2.50;1.87;;;23.60;60.70;;;;;;2050024;28;20031;-79
2022/07/13 04:17:28;;;;;;;5.97;1.75;;;23.50;60.70;;;;;;2042029;29;20039;-80
2022/07/13 04:18:29;;;;;;;3.60;2.25;;;23.50;60.70;;;;;;2048999;28;20027;-80
2022/07/13 04:19:31;;;;;;;2.30;1.70;;;23.50;60.70;;;;;;2057868;28;20027;-78
2022/07/13 04:20:32;;;;;;;3.58;1.90;;;23.50;60.70;;;;;;2057904;28;20058;-80
2022/07/13 04:21:33;;;;;;;6.25;2.35;;;23.50;60.70;;;;;;2043068;29;20032;-79
2022/07/13 04:22:35;;;;;;;4.27;2.00;;;23.50;60.60;;;;;;2042087;28;20035;-79
2022/07/13 04:23:36;;;;;;;4.13;2.50;;;23.50;60.70;;;;;;2049149;29;20165;-78
2022/07/13 04:24:37;;;;;;;3.88;1.63;;;23.50;60.60;;;;;;2043377;28;20375;-80
2022/07/13 04:25:38;;;;;;;3.83;2.10;;;23.50;60.60;;;;;;2058012;28;20062;-78
2022/07/13 04:26:39;;;;;;;4.85;2.17;;;23.50;60.60;;;;;;2056786;28;20042;-78
2022/07/13 04:27:40;;;;;;;4.33;2.30;;;23.50;60.70;;;;;;2042054;29;20118;-78
2022/07/13 04:28:41;;;;;;;3.37;2.20;;;23.50;60.70;;;;;;2048543;28;20457;-78
2022/07/13 04:29:46;;;;;;;4.30;2.05;;;23.50;60.60;;;;;;2050270;28;20047;-80
2022/07/13 04:30:47;;;;;;;4.80;2.40;;;23.50;60.70;;;;;;2049937;28;20516;-79
2022/07/13 04:31:50;;;;;;;5.85;2.00;;;23.40;60.60;;;;;;2048730;29;20035;-81
2022/07/13 04:32:52;;;;;;;3.70;1.98;;;23.50;60.70;;;;;;2041595;29;20063;-78
2022/07/13 04:33:53;;;;;;;;;;;23.50;60.60;;;;;;2042896;28;20063;-78
2022/07/13 04:34:56;;;;;;;4.40;2.05;;;23.50;60.70;;;;;;2049853;28;19918;-79
2022/07/13 04:35:58;;;;;;;2.85;1.70;;;23.50;60.70;;;;;;2041908;29;20043;-81
2022/07/13 04:36:59;;;;;;;2.63;1.80;;;23.40;60.60;;;;;;2047452;29;20031;-81
2022/07/13 04:38:01;;;;;;;;;;;23.40;60.60;;;;;;2048655;28;20071;-81
2022/07/13 04:39:03;;;;;;;5.47;1.88;;;23.40;60.60;;;;;;2042232;29;19907;-78
2022/07/13 04:40:05;;;;;;;4.35;1.80;;;23.40;60.70;;;;;;2042025;29;20027;-80
2022/07/13 04:41:08;;;;;;;2.78;1.88;;;23.40;60.70;;;;;;2042159;29;20036;-79
2022/07/13 04:42:11;;;;;;;6.05;2.45;;;23.40;60.70;;;;;;2056786;28;20023;-80
2022/07/13 04:43:12;;;;;;;5.35;2.17;;;23.40;60.80;;;;;;2049933;29;20441;-80
2022/07/13 04:44:13;;;;;;;2.97;2.00;;;23.40;60.80;;;;;;2049563;28;20023;-81
2022/07/13 04:45:18;;;;;;;3.22;1.80;;;23.40;60.70;;;;;;2060942;28;20495;-78
2022/07/13 04:46:19;;;;;;;3.05;1.90;;;23.40;60.80;;;;;;2057283;28;20023;-79
2022/07/13 04:47:23;;;;;;;4.25;1.80;;;23.40;60.80;;;;;;2058216;28;20086;-79
2022/07/13 04:48:24;;;;;;;5.35;2.10;;;23.40;60.70;;;;;;2057643;28;20073;-78
2022/07/13 04:49:25;;;;;;;4.93;1.80;;;23.40;60.80;;;;;;2041884;29;20462;-79
2022/07/13 04:50:26;;;;;;;2.92;2.00;;;23.40;60.70;;;;;;2046112;28;20261;-78
2022/07/13 04:51:27;;;;;;;5.37;1.67;;;23.40;60.80;;;;;;2048971;28;20028;-78
2022/07/13 04:52:27;;;;;;;8.30;2.27;;;23.30;60.60;;;;;;2055645;28;20054;-78
2022/07/13 04:53:30;;;;;;;5.03;2.70;;;23.30;60.60;;;;;;2063770;28;20037;-80
2022/07/13 04:54:31;;;;;;;;;;;23.40;60.70;;;;;;2043559;29;20024;-78
2022/07/13 04:55:32;;;;;;;2.97;2.10;;;23.40;60.70;;;;;;2041717;29;19911;-78
2022/07/13 04:56:33;;;;;;;2.60;2.00;;;23.40;60.70;;;;;;2049856;29;20040;-78
2022/07/13 04:57:35;;;;;;;5.70;2.10;;;23.40;60.70;;;;;;2049504;29;20027;-81
2022/07/13 04:58:35;;;;;;;4.93;2.00;;;23.40;60.70;;;;;;2034954;29;20036;-80
2022/07/13 04:59:36;;;;;;;3.03;2.00;;;23.40;60.70;;;;;;2051347;28;20544;-79
2022/07/13 05:00:37;;;;;;;2.73;1.90;;;23.40;60.70;;;;;;2054478;28;20062;-78
2022/07/13 05:01:39;;;;;;;6.88;2.00;;;23.30;60.60;;;;;;2051306;28;20031;-80
2022/07/13 05:02:41;;;;;;;3.38;1.95;;;23.30;60.80;;;;;;2051477;28;20027;-79
2022/07/13 05:03:42;;;;;;;4.57;1.93;;;23.30;60.80;;;;;;2043931;29;20023;-79
2022/07/13 05:04:43;;;;;;;3.10;2.10;;;23.30;60.70;;;;;;2042488;29;20415;-82
2022/07/13 05:05:44;;;;;;;3.20;1.70;;;23.30;60.80;;;;;;2059017;28;20222;-78
2022/07/13 05:06:45;;;;;;;5.13;2.17;;;23.30;60.80;;;;;;2050882;29;20474;-79
2022/07/13 05:07:46;;;;;;;3.60;2.10;;;23.30;60.80;;;;;;2043373;29;20031;-81
2022/07/13 05:08:49;;;;;;;4.07;2.00;;;23.30;60.80;;;;;;2058930;28;20043;-80
2022/07/13 05:09:49;;;;;;;3.43;1.97;;;23.20;60.70;;;;;;2051368;28;20041;-81
2022/07/13 05:10:51;;;;;;;4.28;1.70;;;23.30;60.80;;;;;;2039845;29;20032;-79
2022/07/13 05:11:52;;;;;;;2.45;1.77;;;23.30;60.70;;;;;;2042443;28;20031;-80
2022/07/13 05:12:54;;;;;;;7.03;1.73;;;23.30;60.70;;;;;;2057034;28;20022;-80
2022/07/13 05:13:54;;;;;;;2.67;1.58;;;23.30;60.70;;;;;;2058899;28;20030;-81
2022/07/13 05:14:57;;;;;;;4.25;2.20;;;23.20;60.70;;;;;;2058765;28;20019;-81
2022/07/13 05:15:58;;;;;;;3.90;1.92;;;23.30;60.60;;;;;;2046745;28;20027;-81
2022/07/13 05:17:01;;;;;;;3.20;1.90;;;23.30;60.70;;;;;;2051339;28;20079;-78
2022/07/13 05:18:03;;;;;;;3.63;2.30;;;23.30;60.60;;;;;;2045216;28;20059;-79
2022/07/13 05:19:05;;;;;;;4.63;2.22;;;23.30;60.60;;;;;;2053134;28;20490;-81
2022/07/13 05:20:12;;;;;;;3.75;1.95;;;23.30;60.60;;;;;;2059023;28;20125;-80